Time;durP1;ratioP1;P1;durP2;ratioP2;P2;SDS_P1;SDS_P2;PMS_P1;PMS_P2;Temp;Humidity;BMP_temperature;BMP_pressure;BME280_temperature;BME280_humidity;BME280_pressure;Samples;Min_cycle;Max_cycle;Signal;HPM_P1;HPM_P2
2022/02/11 00:04:13;;;;;;;9.63;4.67;;;4.50;99.90;;;;;;5039219;28;20174;-91
2022/02/11 00:06:56;;;;;;;10.73;4.90;;;4.50;99.90;;;;;;5039018;28;20182;-96
2022/02/11 00:09:22;;;;;;;7.00;4.57;;;4.50;99.90;;;;;;5039577;28;20205;-95
2022/02/11 00:11:48;;;;;;;10.00;4.90;;;4.50;99.90;;;;;;5054234;28;20210;-92
2022/02/11 00:14:14;;;;;;;9.93;5.00;;;4.50;99.90;;;;;;5063965;28;20173;-91
2022/02/11 00:16:44;;;;;;;12.37;5.00;;;4.50;99.90;;;;;;5059380;28;20277;-93
2022/02/11 00:19:10;;;;;;;12.37;5.90;;;4.50;99.90;;;;;;5057071;28;20257;-92
2022/02/11 00:21:36;;;;;;;10.80;5.33;;;4.50;99.90;;;;;;5056747;28;20210;-92
2022/02/11 00:24:02;;;;;;;12.43;5.53;;;4.40;99.90;;;;;;5069567;28;20194;-91
2022/02/11 00:26:33;;;;;;;9.27;5.57;;;4.40;99.90;;;;;;5050815;28;20190;-91
2022/02/11 00:34:27;;;;;;;10.67;5.50;;;4.40;99.90;;;;;;5049639;28;20200;-92
2022/02/11 00:37:18;;;;;;;8.60;5.63;;;4.40;99.90;;;;;;5056789;28;20269;-92
2022/02/11 01:04:11;;;;;;;12.37;6.87;;;4.40;99.90;;;;;;5055898;28;20172;-92
2022/02/11 01:06:40;;;;;;;12.60;6.90;;;4.30;99.90;;;;;;5054473;28;20597;-92
2022/02/11 01:09:07;;;;;;;10.97;5.70;;;4.30;99.90;;;;;;5050114;28;20179;-92
2022/02/11 01:11:43;;;;;;;7.60;5.20;;;4.30;99.90;;;;;;5041709;28;20216;-91
2022/02/11 01:14:09;;;;;;;11.47;5.40;;;4.30;99.90;;;;;;5054499;28;20244;-92
2022/02/11 01:16:45;;;;;;;8.80;5.30;;;4.30;99.90;;;;;;5054406;28;20189;-94
2022/02/11 01:19:29;;;;;;;14.63;6.10;;;4.30;99.90;;;;;;5054528;28;20169;-96
2022/02/11 01:30:09;;;;;;;10.67;4.93;;;4.30;99.90;;;;;;5046707;28;20182;-92
2022/02/11 01:35:32;;;;;;;7.70;4.87;;;4.30;99.90;;;;;;5055558;28;20200;-92
2022/02/11 01:51:56;;;;;;;10.63;6.43;;;4.30;99.90;;;;;;5045790;28;20256;-92
2022/02/11 02:11:15;;;;;;;12.80;4.90;;;4.20;99.90;;;;;;5060282;28;20208;-91
2022/02/11 02:14:24;;;;;;;7.47;4.40;;;4.10;99.90;;;;;;5061888;28;20184;-92
2022/02/11 02:22:06;;;;;;;9.23;4.00;;;4.10;99.90;;;;;;5043705;28;20166;-96
2022/02/11 02:27:39;;;;;;;11.20;3.70;;;4.10;99.90;;;;;;5050750;28;20548;-92
2022/02/11 04:26:01;;;;;;;12.10;5.17;;;3.80;99.90;;;;;;5016801;28;20214;-94
2022/02/11 04:56:03;;;;;;;13.03;7.77;;;3.50;99.90;;;;;;5035985;28;20213;-93
2022/02/11 05:01:23;;;;;;;13.63;6.80;;;3.50;99.90;;;;;;5035884;28;20193;-94
2022/02/11 05:03:49;;;;;;;13.17;7.50;;;3.50;99.90;;;;;;5034494;28;20605;-94
2022/02/11 05:06:15;;;;;;;12.80;7.37;;;3.40;99.90;;;;;;5033914;28;20493;-93
2022/02/11 05:08:43;;;;;;;12.83;6.70;;;3.40;99.90;;;;;;5034727;28;20327;-92
2022/02/11 05:11:09;;;;;;;11.87;6.97;;;3.40;99.90;;;;;;5034394;28;20206;-93
2022/02/11 05:13:38;;;;;;;12.50;7.50;;;3.40;99.90;;;;;;5034191;28;20174;-93
2022/02/11 05:16:07;;;;;;;12.67;6.97;;;3.30;99.90;;;;;;5034431;28;20174;-93
2022/02/11 05:18:33;;;;;;;9.53;7.07;;;3.30;99.90;;;;;;5014328;28;20183;-93
2022/02/11 05:20:59;;;;;;;13.27;7.70;;;3.30;99.90;;;;;;5017965;28;20227;-93
2022/02/11 05:23:25;;;;;;;15.57;7.67;;;3.30;99.90;;;;;;5034241;28;20185;-94
2022/02/11 05:25:50;;;;;;;11.80;7.30;;;3.20;99.90;;;;;;5031360;28;20189;-94
2022/02/11 05:28:16;;;;;;;11.90;7.43;;;3.20;99.90;;;;;;5024096;28;20723;-95
2022/02/11 05:30:43;;;;;;;11.93;7.57;;;3.20;99.90;;;;;;5034073;28;20252;-93
2022/02/11 05:33:10;;;;;;;15.83;7.60;;;3.20;99.90;;;;;;5034115;28;20182;-94
2022/02/11 05:35:38;;;;;;;14.97;7.90;;;3.10;99.90;;;;;;5017002;28;20254;-94
2022/02/11 05:38:04;;;;;;;13.57;7.27;;;3.10;99.90;;;;;;5034059;28;20202;-94
2022/02/11 05:40:30;;;;;;;12.60;7.80;;;3.10;99.90;;;;;;5033819;28;20565;-93
2022/02/11 05:42:56;;;;;;;10.90;7.57;;;3.00;99.90;;;;;;5034181;28;20205;-94
2022/02/11 05:45:21;;;;;;;10.93;7.37;;;3.00;99.90;;;;;;5034021;28;20178;-93
2022/02/11 05:47:47;;;;;;;13.80;7.40;;;3.00;99.90;;;;;;5034112;28;20228;-93
2022/02/11 05:50:23;;;;;;;12.60;7.17;;;3.00;99.90;;;;;;5020467;28;20214;-94
2022/02/11 05:52:49;;;;;;;11.57;8.60;;;2.90;99.90;;;;;;5026420;28;20265;-93
2022/02/11 05:55:15;;;;;;;13.30;7.97;;;2.90;99.90;;;;;;5014528;28;20238;-95
2022/02/11 05:57:40;;;;;;;10.13;6.77;;;2.90;99.90;;;;;;5030718;28;20232;-93
2022/02/11 06:00:12;;;;;;;14.70;7.87;;;3.00;99.90;;;;;;5034015;28;20183;-93
2022/02/11 06:02:38;;;;;;;14.47;7.53;;;2.90;99.90;;;;;;5034021;28;20244;-95
2022/02/11 06:05:04;;;;;;;14.53;7.87;;;2.90;99.90;;;;;;5033663;28;20182;-94
2022/02/11 06:07:31;;;;;;;10.97;8.03;;;2.80;99.90;;;;;;5027211;28;20290;-94
2022/02/11 06:10:09;;;;;;;12.43;7.73;;;2.80;99.90;;;;;;5034080;28;20175;-94
2022/02/11 06:12:35;;;;;;;16.67;8.33;;;2.80;99.90;;;;;;5025975;28;20183;-93
2022/02/11 06:15:01;;;;;;;14.80;8.43;;;2.80;99.90;;;;;;5013870;28;20183;-93
2022/02/11 06:17:29;;;;;;;13.17;7.07;;;2.70;99.90;;;;;;5030223;28;20170;-95
2022/02/11 06:20:23;;;;;;;13.83;7.97;;;2.70;99.90;;;;;;5033695;28;20261;-94
2022/02/11 06:22:49;;;;;;;14.30;7.90;;;2.60;99.90;;;;;;5033327;28;20173;-94
2022/02/11 06:25:15;;;;;;;12.33;8.17;;;2.60;99.90;;;;;;5033689;28;20182;-94
2022/02/11 06:27:41;;;;;;;16.00;8.50;;;2.50;99.90;;;;;;5033499;28;20178;-93
2022/02/11 06:30:07;;;;;;;13.43;9.47;;;2.50;99.90;;;;;;5033593;28;20217;-93
2022/02/11 06:32:33;;;;;;;13.87;8.60;;;2.50;99.90;;;;;;5033810;28;20658;-93
2022/02/11 06:34:58;;;;;;;13.03;8.40;;;2.50;99.90;;;;;;5033530;28;20183;-94
2022/02/11 06:37:24;;;;;;;16.90;9.67;;;2.50;99.90;;;;;;5033546;28;20240;-94
2022/02/11 06:39:52;;;;;;;13.93;8.63;;;2.50;99.90;;;;;;5037092;28;20506;-94
2022/02/11 06:42:18;;;;;;;13.80;8.87;;;2.50;99.90;;;;;;5037140;28;20174;-93
2022/02/11 06:44:43;;;;;;;13.00;9.57;;;2.50;99.90;;;;;;5037046;28;20186;-92
2022/02/11 06:47:09;;;;;;;16.10;8.73;;;2.60;99.90;;;;;;5036918;28;20274;-93
2022/02/11 06:49:35;;;;;;;15.17;9.67;;;2.60;99.90;;;;;;5037115;28;20182;-93
2022/02/11 06:52:00;;;;;;;13.23;8.97;;;2.60;99.90;;;;;;5036608;28;20572;-95
2022/02/11 06:54:26;;;;;;;16.17;8.87;;;2.70;99.90;;;;;;5036570;28;20173;-94
2022/02/11 06:56:52;;;;;;;17.97;10.30;;;2.70;99.90;;;;;;5036457;28;20186;-93
2022/02/11 06:59:18;;;;;;;17.67;10.17;;;2.70;99.90;;;;;;5028575;28;20182;-93
2022/02/11 07:01:44;;;;;;;15.70;10.77;;;2.80;99.90;;;;;;5018232;28;20183;-92
2022/02/11 07:04:09;;;;;;;20.57;11.33;;;2.80;99.90;;;;;;5017032;28;20183;-94
2022/02/11 07:06:35;;;;;;;17.77;11.17;;;2.80;99.90;;;;;;5016670;28;20179;-93
2022/02/11 07:09:04;;;;;;;21.30;10.90;;;2.90;99.90;;;;;;5016840;28;20182;-93
2022/02/11 07:11:30;;;;;;;17.87;10.63;;;3.00;99.90;;;;;;5016692;28;20356;-93
2022/02/11 07:13:55;;;;;;;17.97;10.27;;;2.90;99.90;;;;;;5016947;28;20199;-94
2022/02/11 07:16:21;;;;;;;17.27;10.03;;;2.90;99.90;;;;;;5017673;28;20269;-93
2022/02/11 07:18:47;;;;;;;14.80;8.63;;;2.80;99.90;;;;;;5023622;28;20209;-92
2022/02/11 07:21:15;;;;;;;16.50;8.83;;;2.70;99.90;;;;;;5036053;28;20232;-93
2022/02/11 07:23:41;;;;;;;15.73;8.43;;;2.60;99.90;;;;;;5036154;28;20274;-93
2022/02/11 07:26:06;;;;;;;18.70;10.27;;;2.60;99.90;;;;;;5036569;28;20205;-92
2022/02/11 07:28:32;;;;;;;20.40;11.03;;;2.60;99.90;;;;;;5036266;28;20273;-93
2022/02/11 07:31:03;;;;;;;18.67;11.57;;;2.60;99.90;;;;;;5036524;28;20206;-94
2022/02/11 07:33:30;;;;;;;20.60;11.77;;;2.60;99.90;;;;;;5036293;28;20205;-93
2022/02/11 07:35:56;;;;;;;16.73;10.63;;;2.60;99.90;;;;;;5036119;28;20234;-93
2022/02/11 07:38:22;;;;;;;18.33;10.93;;;2.60;99.90;;;;;;5016277;28;20182;-94
2022/02/11 07:40:49;;;;;;;17.83;11.60;;;2.60;99.90;;;;;;5016585;28;20270;-94
2022/02/11 07:43:15;;;;;;;22.47;11.93;;;2.60;99.90;;;;;;5035506;28;20191;-93
2022/02/11 07:45:41;;;;;;;18.87;11.33;;;2.50;99.90;;;;;;5036468;28;20178;-94
2022/02/11 07:48:08;;;;;;;17.40;11.13;;;2.50;99.90;;;;;;5036329;28;20186;-94
2022/02/11 07:50:38;;;;;;;21.90;11.60;;;2.50;99.90;;;;;;5036113;28;20268;-94
2022/02/11 07:53:03;;;;;;;19.90;11.70;;;2.50;99.90;;;;;;5035778;28;20175;-93
2022/02/11 07:55:29;;;;;;;21.47;11.63;;;2.50;99.90;;;;;;5036071;28;20526;-94
2022/02/11 07:57:55;;;;;;;18.30;10.77;;;2.50;99.90;;;;;;5036288;28;20193;-95
2022/02/11 08:00:31;;;;;;;23.73;10.37;;;2.50;99.90;;;;;;5025364;28;20186;-94
2022/02/11 08:02:56;;;;;;;16.27;10.60;;;2.60;99.90;;;;;;5015898;28;20185;-93
2022/02/11 08:05:22;;;;;;;17.50;10.30;;;2.60;99.90;;;;;;5016014;28;20183;-93
2022/02/11 08:07:48;;;;;;;18.43;11.53;;;2.60;99.90;;;;;;5034060;28;20190;-94
2022/02/11 08:10:17;;;;;;;20.00;11.53;;;2.70;99.90;;;;;;5035797;28;20210;-93
2022/02/11 08:12:42;;;;;;;29.37;12.30;;;2.70;99.90;;;;;;5035845;28;20250;-94
2022/02/11 08:15:09;;;;;;;20.70;11.37;;;2.70;99.90;;;;;;5035743;28;20214;-93
2022/02/11 08:17:35;;;;;;;22.23;12.67;;;2.80;99.90;;;;;;5035616;28;20675;-93
2022/02/11 08:20:02;;;;;;;19.67;12.30;;;2.90;99.90;;;;;;5035488;28;20175;-93
2022/02/11 08:22:29;;;;;;;26.37;12.70;;;2.90;99.90;;;;;;5035025;28;20178;-94
2022/02/11 08:24:57;;;;;;;27.93;14.77;;;2.90;99.90;;;;;;5035366;28;20212;-93
2022/02/11 08:27:23;;;;;;;22.33;14.50;;;3.00;99.90;;;;;;5035215;28;20498;-93
2022/02/11 08:29:52;;;;;;;26.77;15.20;;;3.00;99.90;;;;;;5035231;28;20241;-93
2022/02/11 08:32:19;;;;;;;29.50;14.83;;;3.10;99.90;;;;;;5034907;28;20215;-94
2022/02/11 08:34:46;;;;;;;20.77;15.00;;;3.20;99.90;;;;;;5040893;28;20181;-95
2022/02/11 08:37:12;;;;;;;19.23;14.17;;;3.20;99.90;;;;;;5027639;28;20632;-96
2022/02/11 08:39:38;;;;;;;18.97;14.63;;;3.30;99.90;;;;;;5036918;28;20174;-95
2022/02/11 08:42:06;;;;;;;18.33;14.27;;;3.40;99.90;;;;;;5035080;28;20174;-93
2022/02/11 08:44:33;;;;;;;16.83;13.80;;;3.40;99.90;;;;;;5029659;28;20191;-93
2022/02/11 08:46:59;;;;;;;20.30;13.60;;;3.50;99.90;;;;;;5020149;28;20648;-94
2022/02/11 08:49:25;;;;;;;17.27;13.40;;;3.60;99.90;;;;;;5029786;28;20178;-94
2022/02/11 08:51:52;;;;;;;18.40;13.60;;;3.60;99.90;;;;;;5034620;28;20710;-95
2022/02/11 08:54:18;;;;;;;18.17;13.37;;;3.60;99.90;;;;;;5035022;28;20578;-95
2022/02/11 08:56:43;;;;;;;22.03;13.50;;;3.60;99.90;;;;;;5025191;28;20210;-95
2022/02/11 08:59:09;;;;;;;20.03;14.47;;;3.60;99.90;;;;;;5014981;28;20192;-95
2022/02/11 09:01:35;;;;;;;19.37;13.87;;;3.80;99.90;;;;;;5015841;28;20183;-95
2022/02/11 09:04:01;;;;;;;15.13;12.50;;;3.90;99.90;;;;;;5015131;28;20175;-94
2022/02/11 09:06:27;;;;;;;20.00;12.47;;;3.90;99.90;;;;;;5014759;28;20210;-94
2022/02/11 09:08:52;;;;;;;13.17;10.80;;;4.00;99.90;;;;;;5014387;28;20179;-94
2022/02/11 09:11:22;;;;;;;14.03;10.93;;;4.00;99.90;;;;;;5014822;28;20207;-95
2022/02/11 09:13:51;;;;;;;13.63;9.80;;;3.90;99.90;;;;;;5034765;28;20205;-93
2022/02/11 09:16:18;;;;;;;15.13;9.57;;;4.00;99.90;;;;;;5016279;28;20206;-95
2022/02/11 09:18:44;;;;;;;15.43;9.57;;;4.00;99.90;;;;;;5014270;28;20190;-94
2022/02/11 09:21:11;;;;;;;11.87;9.90;;;4.00;99.90;;;;;;5032586;28;20186;-94
2022/02/11 09:23:37;;;;;;;11.50;8.63;;;4.10;99.90;;;;;;5029859;28;20179;-95
2022/02/11 09:26:03;;;;;;;15.97;9.67;;;4.10;99.90;;;;;;5015484;28;20179;-95
2022/02/11 09:28:29;;;;;;;13.50;8.67;;;4.10;99.90;;;;;;5014465;28;20262;-95
2022/02/11 09:30:56;;;;;;;12.07;7.93;;;4.10;99.90;;;;;;5030448;28;20202;-94
2022/02/11 09:33:21;;;;;;;15.17;7.17;;;4.20;99.90;;;;;;5034437;28;20636;-95
2022/02/11 09:35:49;;;;;;;11.17;6.87;;;4.30;99.90;;;;;;5033913;28;20179;-94
2022/02/11 09:38:22;;;;;;;11.33;6.57;;;4.30;99.90;;;;;;5034090;28;20185;-96
2022/02/11 09:40:53;;;;;;;10.43;6.33;;;4.30;99.90;;;;;;5034123;28;20236;-95
2022/02/11 09:43:22;;;;;;;9.50;6.47;;;4.30;99.90;;;;;;5019814;28;20837;-96
2022/02/11 09:45:49;;;;;;;8.90;6.27;;;4.30;99.90;;;;;;5020457;28;20236;-95
2022/02/11 09:48:16;;;;;;;9.93;6.70;;;4.40;99.90;;;;;;5033989;28;20185;-95
2022/02/11 09:50:55;;;;;;;8.83;5.43;;;4.40;99.90;;;;;;5033847;28;20216;-95
2022/02/11 09:53:28;;;;;;;8.63;5.63;;;4.40;99.90;;;;;;5033706;28;20589;-96
2022/02/11 09:55:55;;;;;;;11.13;5.17;;;4.40;99.90;;;;;;5017610;28;20182;-93
2022/02/11 09:58:21;;;;;;;10.13;5.23;;;4.40;99.90;;;;;;5033879;28;20186;-93
2022/02/11 10:00:56;;;;;;;6.20;4.43;;;4.30;99.90;;;;;;5033826;28;20178;-93
2022/02/11 10:03:30;;;;;;;9.80;4.80;;;4.30;99.90;;;;;;5034078;28;20235;-93
2022/02/11 10:06:00;;;;;;;10.83;5.43;;;4.30;99.90;;;;;;5017461;28;20194;-93
2022/02/11 10:08:29;;;;;;;10.70;5.33;;;4.30;99.90;;;;;;5033710;28;20190;-94
2022/02/11 10:10:58;;;;;;;7.37;4.70;;;4.30;99.90;;;;;;5028099;28;20215;-93
2022/02/11 10:13:30;;;;;;;9.60;4.60;;;4.30;99.90;;;;;;5017634;28;20598;-94
2022/02/11 10:16:02;;;;;;;11.17;4.67;;;4.20;99.90;;;;;;5031569;28;20187;-92
2022/02/11 10:18:32;;;;;;;7.83;3.80;;;4.30;99.90;;;;;;5017871;28;20194;-94
2022/02/11 10:21:02;;;;;;;6.13;3.60;;;4.20;99.90;;;;;;5033470;28;20209;-94
2022/02/11 10:23:41;;;;;;;6.63;3.57;;;4.20;99.90;;;;;;5025182;28;20194;-94
2022/02/11 10:26:11;;;;;;;8.13;3.90;;;4.30;99.90;;;;;;5017988;28;20179;-94
2022/02/11 10:28:51;;;;;;;5.83;3.17;;;4.20;99.90;;;;;;5019610;28;20622;-91
2022/02/11 10:31:35;;;;;;;4.80;3.03;;;4.30;99.90;;;;;;5031929;28;20294;-93
2022/02/11 10:34:11;;;;;;;4.43;2.70;;;4.30;99.90;;;;;;5037270;28;20515;-92
2022/02/11 10:36:39;;;;;;;3.07;2.00;;;4.40;99.90;;;;;;5036538;28;20229;-92
2022/02/11 10:39:17;;;;;;;5.33;2.27;;;4.40;99.90;;;;;;5033628;28;20273;-92
2022/02/11 10:42:06;;;;;;;3.27;1.80;;;4.40;99.90;;;;;;5037027;28;20210;-93
2022/02/11 10:44:36;;;;;;;4.27;1.40;;;4.30;99.90;;;;;;5036936;28;20513;-92
2022/02/11 10:47:11;;;;;;;2.83;1.67;;;4.30;99.90;;;;;;5037045;28;20625;-93
2022/02/11 10:49:42;;;;;;;1.97;1.20;;;4.30;99.90;;;;;;5037234;28;20170;-92
2022/02/11 10:52:15;;;;;;;2.07;1.17;;;4.30;99.90;;;;;;5036567;28;20206;-91
2022/02/11 10:54:43;;;;;;;3.03;1.47;;;4.30;99.90;;;;;;5036899;28;20186;-93
2022/02/11 10:57:11;;;;;;;2.27;1.27;;;4.30;99.90;;;;;;5036828;28;20191;-92
2022/02/11 10:59:44;;;;;;;3.27;1.47;;;4.30;99.90;;;;;;5017798;28;20179;-92
2022/02/11 11:02:17;;;;;;;3.03;1.20;;;4.30;99.90;;;;;;5022216;28;20187;-94
2022/02/11 11:04:45;;;;;;;3.50;1.47;;;4.30;99.90;;;;;;5018726;28;20207;-92
2022/02/11 11:07:23;;;;;;;4.13;1.80;;;4.30;99.90;;;;;;5036296;28;20273;-94
2022/02/11 11:09:52;;;;;;;2.93;1.60;;;4.40;99.90;;;;;;5053182;28;20182;-93
2022/02/11 11:12:31;;;;;;;4.90;1.30;;;4.40;99.90;;;;;;5036470;28;20210;-92
2022/02/11 11:15:01;;;;;;;5.23;1.43;;;4.50;99.90;;;;;;5036374;28;20174;-92
2022/02/11 11:17:28;;;;;;;6.10;1.70;;;4.40;99.90;;;;;;5037735;28;20221;-93
2022/02/11 11:19:56;;;;;;;4.37;1.57;;;4.40;99.90;;;;;;5036531;28;20613;-93
2022/02/11 11:22:31;;;;;;;2.30;1.43;;;4.50;99.90;;;;;;5036395;28;20217;-93
2022/02/11 11:25:10;;;;;;;3.97;1.33;;;4.50;99.90;;;;;;5035868;28;20186;-93
2022/02/11 11:27:57;;;;;;;3.63;1.67;;;4.50;99.90;;;;;;5037706;28;20609;-94
2022/02/11 11:30:40;;;;;;;3.57;1.90;;;4.60;99.90;;;;;;5036128;28;20206;-93
2022/02/11 11:33:09;;;;;;;2.93;1.70;;;4.60;99.90;;;;;;5037515;28;20213;-93
2022/02/11 11:35:42;;;;;;;4.73;1.30;;;4.60;99.90;;;;;;5018566;28;20194;-94
2022/02/11 11:38:12;;;;;;;3.57;1.60;;;4.60;99.90;;;;;;5029536;28;20186;-94
2022/02/11 11:40:39;;;;;;;4.37;1.50;;;4.70;99.90;;;;;;5017272;28;20175;-95
2022/02/11 11:43:14;;;;;;;5.03;1.60;;;4.70;99.90;;;;;;5036062;28;20610;-95
2022/02/11 11:45:43;;;;;;;3.30;1.70;;;4.60;99.90;;;;;;5035610;28;20186;-95
2022/02/11 11:48:13;;;;;;;3.37;1.67;;;4.70;99.90;;;;;;5030694;28;20509;-94
2022/02/11 11:50:45;;;;;;;3.20;1.40;;;4.70;99.90;;;;;;5016113;28;20219;-96
2022/02/11 11:53:25;;;;;;;5.13;1.80;;;4.80;99.90;;;;;;5029410;28;20182;-95
2022/02/11 11:55:51;;;;;;;3.77;1.70;;;4.90;99.90;;;;;;5033061;28;20643;-95
2022/02/11 11:58:45;;;;;;;2.53;1.10;;;4.90;99.90;;;;;;5022471;28;20170;-95
2022/02/11 12:01:19;;;;;;;3.87;1.63;;;5.00;99.90;;;;;;5030607;28;20225;-96
2022/02/11 12:04:24;;;;;;;3.00;1.57;;;5.00;99.90;;;;;;5032675;28;20182;-96
2022/02/11 12:07:02;;;;;;;7.90;1.30;;;5.20;99.90;;;;;;5025773;28;20281;-95
2022/02/11 12:09:29;;;;;;;2.27;1.13;;;5.10;99.90;;;;;;5017820;28;20560;-94
2022/02/11 12:12:00;;;;;;;2.57;1.30;;;5.10;99.90;;;;;;5015593;28;20207;-94
2022/02/11 12:14:28;;;;;;;7.27;1.60;;;5.20;99.90;;;;;;5015896;28;20205;-95
2022/02/11 12:16:55;;;;;;;6.83;2.27;;;5.20;99.90;;;;;;5025856;28;20237;-94
2022/02/11 12:19:22;;;;;;;8.20;2.30;;;5.30;99.90;;;;;;5031629;28;20644;-94
2022/02/11 12:21:48;;;;;;;10.03;2.20;;;5.30;99.90;;;;;;5035255;28;20629;-95
2022/02/11 12:29:54;;;;;;;3.10;1.30;;;5.30;99.90;;;;;;5017069;28;20161;-96
2022/02/11 12:32:23;;;;;;;3.47;1.20;;;5.40;99.90;;;;;;5034915;28;20213;-96
2022/02/11 12:34:51;;;;;;;1.87;1.37;;;5.40;99.90;;;;;;5034899;28;20237;-95
2022/02/11 12:37:18;;;;;;;2.80;1.50;;;5.40;99.90;;;;;;5034139;28;20277;-95
2022/02/11 12:39:45;;;;;;;3.30;1.10;;;5.40;99.90;;;;;;5035225;28;20227;-93
2022/02/11 12:42:15;;;;;;;2.13;1.00;;;5.20;99.90;;;;;;5034858;28;20178;-94
2022/02/11 12:44:42;;;;;;;1.00;0.90;;;5.30;99.90;;;;;;5034187;28;20183;-94
2022/02/11 12:47:07;;;;;;;1.97;0.80;;;5.30;99.90;;;;;;5022649;28;20513;-94
2022/02/11 12:49:42;;;;;;;2.30;1.10;;;5.30;99.90;;;;;;5031644;28;20183;-93
2022/02/11 12:52:07;;;;;;;1.13;1.00;;;5.20;99.90;;;;;;5030144;28;20205;-93
2022/02/11 12:54:34;;;;;;;2.80;1.00;;;5.30;99.90;;;;;;5023206;28;20174;-93
2022/02/11 12:57:04;;;;;;;1.37;0.90;;;5.30;99.90;;;;;;5022429;28;20203;-94
2022/02/11 12:59:30;;;;;;;2.80;1.17;;;5.30;99.90;;;;;;5031081;28;20190;-94
2022/02/11 13:01:56;;;;;;;2.63;1.30;;;5.40;99.90;;;;;;5034712;28;20565;-93
2022/02/11 13:04:32;;;;;;;1.37;1.17;;;5.40;99.90;;;;;;5030962;28;20166;-94
2022/02/11 13:06:57;;;;;;;1.50;1.40;;;5.50;99.90;;;;;;5022742;28;20179;-93
2022/02/11 13:09:23;;;;;;;2.27;1.57;;;5.50;99.90;;;;;;5029683;28;20270;-93
2022/02/11 13:11:58;;;;;;;3.23;1.30;;;5.50;99.90;;;;;;5034315;28;20652;-94
2022/02/11 13:14:44;;;;;;;4.10;2.47;;;5.40;99.90;;;;;;5028020;28;20250;-93
2022/02/11 13:17:10;;;;;;;3.07;1.90;;;5.20;99.90;;;;;;5028305;28;20193;-92
2022/02/11 13:19:36;;;;;;;2.73;2.23;;;5.20;99.90;;;;;;5033609;28;20178;-93
2022/02/11 13:22:02;;;;;;;2.27;1.70;;;5.20;99.90;;;;;;5014856;28;20609;-95
2022/02/11 13:24:38;;;;;;;2.17;1.60;;;5.20;99.90;;;;;;5029944;28;20181;-92
2022/02/11 13:27:04;;;;;;;2.40;1.93;;;5.10;99.90;;;;;;5034189;28;20178;-93
2022/02/11 13:29:29;;;;;;;3.00;2.00;;;5.00;99.90;;;;;;5033781;28;20203;-93
2022/02/11 13:31:55;;;;;;;1.83;1.60;;;5.00;99.90;;;;;;5034092;28;20198;-93
2022/02/11 13:34:25;;;;;;;2.47;1.40;;;5.00;99.90;;;;;;5033988;28;20206;-94
2022/02/11 13:36:50;;;;;;;1.53;1.43;;;4.90;99.90;;;;;;5033503;28;20234;-93
2022/02/11 13:39:31;;;;;;;2.50;1.77;;;5.00;99.90;;;;;;5034233;28;20185;-93
2022/02/11 13:41:58;;;;;;;3.17;1.40;;;4.90;99.90;;;;;;5034266;28;20197;-93
2022/02/11 13:44:24;;;;;;;1.57;1.40;;;4.90;99.90;;;;;;5033802;28;20174;-93
2022/02/11 13:46:53;;;;;;;2.17;1.73;;;4.90;99.90;;;;;;5017512;28;20194;-93
2022/02/11 13:49:21;;;;;;;1.60;1.50;;;4.80;99.90;;;;;;5035105;28;20186;-94
2022/02/11 13:55:07;;;;;;;1.70;1.60;;;4.70;99.90;;;;;;5019731;28;20186;-94
2022/02/11 13:57:36;;;;;;;2.83;1.60;;;4.70;99.90;;;;;;5034689;28;20525;-95
2022/02/11 14:00:24;;;;;;;2.00;1.67;;;4.70;99.90;;;;;;5034706;28;20263;-94
2022/02/11 14:02:49;;;;;;;2.90;1.83;;;4.80;99.90;;;;;;5024149;28;20525;-93
2022/02/11 14:05:54;;;;;;;3.27;1.50;;;4.80;99.90;;;;;;5037710;28;20186;-93
2022/02/11 14:08:21;;;;;;;2.10;1.87;;;4.80;99.90;;;;;;4904817;29;20576;-93
2022/02/11 14:10:48;;;;;;;2.33;1.83;;;4.80;99.90;;;;;;5002974;28;20251;-95
2022/02/11 14:13:14;;;;;;;4.00;1.80;;;4.80;99.90;;;;;;5037788;28;20637;-93
2022/02/11 14:15:46;;;;;;;2.00;1.50;;;4.80;99.90;;;;;;5037553;28;20174;-93
2022/02/11 14:18:12;;;;;;;1.63;1.53;;;4.80;99.90;;;;;;5037818;28;20183;-94
2022/02/11 14:20:38;;;;;;;3.37;1.90;;;4.80;99.90;;;;;;5037543;28;20213;-93
2022/02/11 14:23:16;;;;;;;2.10;1.80;;;4.80;99.90;;;;;;5037813;28;20174;-94
2022/02/11 14:25:43;;;;;;;3.00;2.13;;;4.80;99.90;;;;;;5037410;28;20187;-92
2022/02/11 14:28:10;;;;;;;2.77;2.17;;;4.80;99.90;;;;;;5033539;28;20860;-93
2022/02/11 14:30:39;;;;;;;4.20;3.23;;;4.70;99.90;;;;;;5018017;28;20214;-94
2022/02/11 14:33:05;;;;;;;4.20;3.80;;;4.70;99.90;;;;;;5017590;28;20183;-93
2022/02/11 14:35:34;;;;;;;4.67;3.97;;;4.70;99.90;;;;;;5017452;28;20179;-93
2022/02/11 14:38:00;;;;;;;6.43;4.57;;;4.60;99.90;;;;;;5032169;28;20301;-94
2022/02/11 14:40:25;;;;;;;5.37;4.60;;;4.60;99.90;;;;;;5017617;28;20186;-94
2022/02/11 14:42:51;;;;;;;5.63;4.83;;;4.60;99.90;;;;;;5017329;28;20373;-94
2022/02/11 14:45:17;;;;;;;5.70;4.70;;;4.60;99.90;;;;;;5018320;28;20175;-94
2022/02/11 14:47:42;;;;;;;9.27;4.60;;;4.60;99.90;;;;;;5019877;28;20172;-93
2022/02/11 14:50:08;;;;;;;7.13;4.80;;;4.50;99.90;;;;;;5017219;28;20191;-95
2022/02/11 14:52:34;;;;;;;5.60;4.40;;;4.60;99.90;;;;;;5016917;28;20195;-93
2022/02/11 14:55:04;;;;;;;5.33;4.70;;;4.60;99.90;;;;;;5027118;28;20320;-93
2022/02/11 14:57:30;;;;;;;7.77;4.93;;;4.50;99.90;;;;;;5036796;28;20269;-93
2022/02/11 14:59:56;;;;;;;10.80;4.70;;;4.50;99.90;;;;;;5026896;28;20257;-93
2022/02/11 15:02:21;;;;;;;7.37;5.20;;;4.50;99.90;;;;;;5037166;28;20174;-93
2022/02/11 15:04:50;;;;;;;7.83;4.40;;;4.50;99.90;;;;;;5056471;28;20676;-94
2022/02/11 15:07:17;;;;;;;8.70;5.67;;;4.60;99.90;;;;;;5043554;28;20178;-94
2022/02/11 15:09:45;;;;;;;6.67;4.83;;;4.60;99.90;;;;;;5036404;28;20206;-93
2022/02/11 15:12:11;;;;;;;8.37;4.93;;;4.60;99.90;;;;;;5050444;28;20210;-93
2022/02/11 15:14:38;;;;;;;6.57;5.13;;;4.50;99.90;;;;;;5048527;28;20493;-93
2022/02/11 15:17:04;;;;;;;6.60;4.63;;;4.60;99.90;;;;;;5036594;28;20174;-93
2022/02/11 15:19:30;;;;;;;7.17;5.00;;;4.60;99.90;;;;;;5036589;28;20497;-94
2022/02/11 15:21:56;;;;;;;8.77;5.20;;;4.60;99.90;;;;;;5036493;28;20179;-96
2022/02/11 15:24:22;;;;;;;8.00;5.30;;;4.50;99.90;;;;;;5036428;28;20512;-95
2022/02/11 15:26:48;;;;;;;8.53;4.90;;;4.50;99.90;;;;;;5036261;28;20242;-92
2022/02/11 15:29:14;;;;;;;7.90;5.63;;;4.60;99.90;;;;;;5029772;28;20187;-94
2022/02/11 15:31:40;;;;;;;8.83;4.77;;;4.60;99.90;;;;;;5015448;28;20362;-94
2022/02/11 15:34:06;;;;;;;7.63;5.03;;;4.50;99.90;;;;;;5031717;28;20618;-93
2022/02/11 15:36:32;;;;;;;7.17;5.40;;;4.60;99.90;;;;;;5032204;28;20250;-93
2022/02/11 15:38:58;;;;;;;8.37;5.33;;;4.50;99.90;;;;;;5036009;28;20267;-93
2022/02/11 15:41:24;;;;;;;12.87;5.67;;;4.40;99.90;;;;;;5035876;28;20304;-94
2022/02/11 15:43:50;;;;;;;9.53;4.50;;;4.40;99.90;;;;;;5036038;28;20182;-93
2022/02/11 15:46:20;;;;;;;10.03;5.23;;;4.50;99.90;;;;;;5035970;28;20274;-93
2022/02/11 15:48:45;;;;;;;7.40;4.47;;;4.50;99.90;;;;;;5035680;28;20206;-94
2022/02/11 15:51:13;;;;;;;5.50;3.20;;;4.60;99.90;;;;;;5035831;28;20253;-94
2022/02/11 15:53:39;;;;;;;4.27;2.70;;;4.60;99.90;;;;;;5035499;28;20186;-93
2022/02/11 15:56:06;;;;;;;3.80;2.33;;;4.60;99.90;;;;;;5035690;28;20179;-94
2022/02/11 15:58:33;;;;;;;5.57;2.50;;;4.50;99.90;;;;;;5035680;28;20174;-94
2022/02/11 16:00:59;;;;;;;5.40;2.00;;;4.50;99.90;;;;;;5035717;28;20299;-93
2022/02/11 16:03:25;;;;;;;6.73;2.10;;;4.50;99.90;;;;;;5035504;28;20178;-94
2022/02/11 16:05:53;;;;;;;4.83;1.87;;;4.40;99.90;;;;;;5035497;28;20205;-94
2022/02/11 16:08:19;;;;;;;4.07;1.83;;;4.30;99.90;;;;;;5035270;28;20182;-94
2022/02/11 16:10:45;;;;;;;5.73;1.87;;;4.20;99.90;;;;;;5034440;28;20206;-94
2022/02/11 16:13:10;;;;;;;4.77;1.33;;;4.20;99.90;;;;;;5035320;28;20273;-94
2022/02/11 16:15:38;;;;;;;6.80;1.90;;;4.20;99.90;;;;;;5035292;28;20243;-96
2022/02/11 16:18:04;;;;;;;5.83;1.47;;;4.10;99.90;;;;;;5039151;28;20174;-94
2022/02/11 16:20:36;;;;;;;6.97;1.40;;;4.00;99.90;;;;;;5035288;28;20182;-94
2022/02/11 16:23:04;;;;;;;7.47;1.50;;;3.90;99.90;;;;;;5034876;28;20173;-94
2022/02/11 16:25:37;;;;;;;4.63;1.60;;;4.00;99.90;;;;;;5035090;28;20198;-95
2022/02/11 16:28:08;;;;;;;3.57;1.23;;;3.90;99.90;;;;;;5035283;28;20225;-95
2022/02/11 16:30:35;;;;;;;8.27;1.60;;;3.90;99.90;;;;;;5035288;28;20302;-94
2022/02/11 16:33:02;;;;;;;4.13;1.43;;;3.80;99.90;;;;;;5035018;28;20178;-95
2022/02/11 16:35:38;;;;;;;5.30;1.67;;;3.80;99.90;;;;;;5035220;28;20265;-94
2022/02/11 16:38:10;;;;;;;6.13;1.70;;;3.80;99.90;;;;;;5033357;28;20308;-94
2022/02/11 16:40:37;;;;;;;3.23;1.30;;;3.70;99.90;;;;;;5055000;28;20543;-94
2022/02/11 16:43:06;;;;;;;4.33;1.87;;;3.70;99.90;;;;;;5042441;28;20174;-91
2022/02/11 16:45:33;;;;;;;7.13;2.30;;;3.70;99.90;;;;;;5031713;28;20220;-95
2022/02/11 16:48:01;;;;;;;8.60;2.20;;;3.60;99.90;;;;;;5035097;28;20209;-93
2022/02/11 16:50:27;;;;;;;4.33;1.73;;;3.70;99.90;;;;;;5034340;28;20187;-94
2022/02/11 16:52:53;;;;;;;9.27;1.97;;;3.70;99.90;;;;;;5034846;28;20174;-94
2022/02/11 16:55:19;;;;;;;7.10;1.60;;;3.70;99.90;;;;;;5024702;28;20187;-94
2022/02/11 16:57:47;;;;;;;6.90;1.73;;;3.60;99.90;;;;;;5014951;28;20186;-93